createdAt,value
2018-06-11T00:00:15.351Z,96546.13
2018-06-11T00:02:49.568Z,96534.60
2018-06-11T00:05:18.668Z,96540.50
2018-06-11T00:07:47.764Z,96535.79
2018-06-11T00:10:17.476Z,96529.03
2018-06-11T00:12:46.617Z,96530.80
2018-06-11T00:15:16.698Z,96533.47
2018-06-11T00:17:45.802Z,96532.25
2018-06-11T00:20:14.940Z,96525.44
2018-06-11T00:22:44.850Z,96525.97
2018-06-11T00:25:14.988Z,96515.81
2018-06-11T00:27:44.948Z,96515.81
2018-06-11T00:30:14.883Z,96524.10
2018-06-11T00:32:44.954Z,96519.81
2018-06-11T00:35:14.941Z,96519.38
2018-06-11T00:37:45.005Z,96510.87
2018-06-11T00:40:14.956Z,96506.28
2018-06-11T00:42:44.953Z,96508.20
2018-06-11T00:45:15.684Z,96499.69
2018-06-11T00:47:44.904Z,96500.17
2018-06-11T00:50:14.974Z,96496.84
2018-06-11T00:52:44.973Z,96502.08
2018-06-11T00:55:18.882Z,96498.91
2018-06-11T00:57:48.006Z,96500.83
2018-06-11T01:00:17.157Z,96509.72
2018-06-11T01:02:47.164Z,96505.16
2018-06-11T01:05:21.277Z,96512.13
2018-06-11T01:07:50.420Z,96513.02
2018-06-11T01:10:19.470Z,96508.36
2018-06-11T01:12:48.642Z,96512.17
2018-06-11T01:15:17.858Z,96508.27
2018-06-11T01:17:46.992Z,96506.19
2018-06-11T01:20:19.510Z,96506.60
2018-06-11T01:22:48.632Z,96504.58
2018-06-11T01:25:17.740Z,96510.19
2018-06-11T01:27:46.812Z,96508.13
2018-06-11T01:30:16.032Z,96515.09
2018-06-11T01:32:45.224Z,96517.64
2018-06-11T01:35:15.283Z,96513.33
2018-06-11T01:37:46.306Z,96515.98
2018-06-11T01:40:15.491Z,96514.38
2018-06-11T01:42:45.530Z,96508.53
2018-06-11T01:45:15.361Z,96513.81
2018-06-11T01:47:45.383Z,96516.66
2018-06-11T01:50:15.349Z,96516.70
2018-06-11T01:52:45.409Z,96518.46
2018-06-11T01:55:15.461Z,96517.66
2018-06-11T01:57:45.512Z,96513.41
2018-06-11T02:00:15.489Z,96515.98
2018-06-11T02:02:45.540Z,96509.95
2018-06-11T02:05:15.509Z,96509.95
2018-06-11T02:07:47.164Z,96511.28
2018-06-11T02:10:19.842Z,96507.56
2018-06-11T02:12:49.001Z,96499.92
2018-06-11T02:15:18.158Z,96497.35
2018-06-11T02:17:47.279Z,96497.34
2018-06-11T02:20:16.431Z,96501.58
2018-06-11T02:22:45.585Z,96493.03
2018-06-11T02:25:15.751Z,96496.49
2018-06-11T02:27:45.615Z,96501.53
2018-06-11T02:30:15.618Z,96493.03
2018-06-11T02:32:45.737Z,96495.59
2018-06-11T02:35:15.711Z,96499.92
2018-06-11T02:37:45.650Z,96490.70
2018-06-11T02:40:15.695Z,96483.98
2018-06-11T02:42:45.567Z,96483.56
2018-06-11T02:45:14.677Z,96486.60
2018-06-11T02:47:43.779Z,96484.93
2018-06-11T02:50:12.832Z,96487.54
2018-06-11T02:52:41.928Z,96486.05
2018-06-11T02:55:11.699Z,96490.69
2018-06-11T02:57:46.956Z,96490.27
2018-06-11T03:00:16.074Z,96486.28
2018-06-11T03:02:45.835Z,96479.14
2018-06-11T03:05:15.804Z,96477.31
2018-06-11T03:07:45.919Z,96487.75
2018-06-11T03:10:15.866Z,96489.37
2018-06-11T03:12:46.042Z,96491.03
2018-06-11T03:15:16.000Z,96483.69
2018-06-11T03:17:46.045Z,96487.87
2018-06-11T03:20:16.001Z,96483.13
2018-06-11T03:22:46.199Z,96476.72
2018-06-11T03:25:19.473Z,96478.34
2018-06-11T03:27:48.644Z,96483.42
2018-06-11T03:30:24.542Z,96477.02
2018-06-11T03:32:53.807Z,96475.22
2018-06-11T03:35:22.948Z,96484.09
2018-06-11T03:37:52.127Z,96493.84
2018-06-11T03:40:21.285Z,96482.77
2018-06-11T03:42:50.405Z,96479.30
2018-06-11T03:45:19.529Z,96467.67
2018-06-11T03:47:48.697Z,96466.35
2018-06-11T03:50:17.933Z,96472.72
2018-06-11T03:52:47.091Z,96472.25
2018-06-11T03:55:19.343Z,96464.78
2018-06-11T03:57:48.611Z,96471.52
2018-06-11T04:00:17.679Z,96472.25
2018-06-11T04:02:46.818Z,96467.06
2018-06-11T04:05:16.911Z,96466.97
2018-06-11T04:07:46.311Z,96467.22
2018-06-11T04:10:16.397Z,96456.86
2018-06-11T04:12:46.371Z,96451.97
2018-06-11T04:15:16.349Z,96451.02
2018-06-11T04:17:46.265Z,96452.62
2018-06-11T04:20:16.882Z,96440.13
2018-06-11T04:22:46.444Z,96440.42
2018-06-11T04:25:16.295Z,96441.50
2018-06-11T04:27:46.503Z,96442.69
2018-06-11T04:30:16.343Z,96446.36
2018-06-11T04:32:46.435Z,96450.69
2018-06-11T04:35:16.427Z,96454.95
2018-06-11T04:37:46.437Z,96462.13
2018-06-11T04:40:16.524Z,96467.22
2018-06-11T04:42:46.517Z,96465.02
2018-06-11T04:45:16.490Z,96463.60
2018-06-11T04:47:46.504Z,96460.78
2018-06-11T04:50:17.237Z,96460.30
2018-06-11T04:52:46.489Z,96467.91
2018-06-11T04:55:16.594Z,96469.62
2018-06-11T04:57:46.599Z,96469.52
2018-06-11T05:00:16.594Z,96469.36
2018-06-11T05:02:46.616Z,96471.77
2018-06-11T05:05:16.615Z,96462.69
2018-06-11T05:07:46.602Z,96457.80
2018-06-11T05:10:22.605Z,96458.41
2018-06-11T05:12:51.700Z,96449.58
2018-06-11T05:15:21.905Z,96453.59
2018-06-11T05:17:51.046Z,96450.54
2018-06-11T05:20:20.194Z,96451.66
2018-06-11T05:22:49.326Z,96445.92
2018-06-11T05:25:19.619Z,96445.20
2018-06-11T05:27:48.843Z,96441.61
2018-06-11T05:32:51.712Z,96440.73
2018-06-11T05:35:20.879Z,96440.92
2018-06-11T05:37:50.128Z,96432.27
2018-06-11T05:40:19.378Z,96436.39
2018-06-11T05:42:48.519Z,96433.25
2018-06-11T05:45:17.708Z,96439.88
2018-06-11T05:47:46.869Z,96441.84
2018-06-11T05:50:16.912Z,96433.09
2018-06-11T05:52:46.943Z,96436.78
2018-06-11T05:55:18.658Z,96430.27
2018-06-11T05:57:47.913Z,96427.47
2018-06-11T06:00:18.044Z,96432.30
2018-06-11T06:02:47.236Z,96433.63
2018-06-11T06:05:17.124Z,96418.67
2018-06-11T06:07:47.048Z,96422.51
2018-06-11T06:10:17.093Z,96418.73
2018-06-11T06:12:47.052Z,96417.02
2018-06-11T06:15:17.089Z,96418.84
2018-06-11T06:17:47.171Z,96415.14
2018-06-11T06:20:22.768Z,96416.09
2018-06-11T06:22:52.228Z,96410.37
2018-06-11T06:25:35.403Z,96408.47
2018-06-11T06:28:04.684Z,96413.17
2018-06-11T06:30:36.992Z,96409.34
2018-06-11T06:33:06.248Z,96408.98
2018-06-11T06:35:35.834Z,96416.35
2018-06-11T06:38:04.942Z,96414.80
2018-06-11T06:40:34.073Z,96417.00
2018-06-11T06:43:03.267Z,96422.81
2018-06-11T06:45:32.410Z,96426.68
2018-06-11T06:48:01.503Z,96428.78
2018-06-11T06:50:30.616Z,96426.70
2018-06-11T06:52:59.832Z,96428.13
2018-06-11T06:55:29.013Z,96420.16
2018-06-11T06:57:58.068Z,96419.23
2018-06-11T07:00:27.171Z,96421.58
2018-06-11T07:02:56.393Z,96411.81
2018-06-11T07:05:25.482Z,96411.34
2018-06-11T07:07:54.573Z,96425.15
2018-06-11T07:10:23.834Z,96427.85
2018-06-11T07:12:52.972Z,96428.25
2018-06-11T07:15:22.063Z,96429.55
2018-06-11T07:17:51.221Z,96430.22
2018-06-11T07:20:20.411Z,96429.36
2018-06-11T07:22:49.586Z,96425.47
2018-06-11T07:25:22.844Z,96434.63
2018-06-11T07:27:52.075Z,96432.30
2018-06-11T07:30:21.225Z,96428.52
2018-06-11T07:32:51.899Z,96428.54
2018-06-11T07:35:20.984Z,96433.69
2018-06-11T07:37:50.213Z,96437.06
2018-06-11T07:40:19.345Z,96440.80
2018-06-11T07:42:48.523Z,96437.77
2018-06-11T07:45:17.710Z,96438.87
2018-06-11T07:47:47.833Z,96443.81
2018-06-11T07:50:17.685Z,96443.41
2018-06-11T07:52:47.952Z,96445.55
2018-06-11T07:55:17.789Z,96442.44
2018-06-11T07:57:47.704Z,96439.71
2018-06-11T08:00:17.736Z,96436.43
2018-06-11T08:02:47.813Z,96439.63
2018-06-11T08:05:18.308Z,96439.17
2018-06-11T08:07:47.950Z,96441.43
2018-06-11T08:10:17.841Z,96438.94
2018-06-11T08:12:47.863Z,96434.00
2018-06-11T08:15:19.593Z,96431.27
2018-06-11T08:17:48.844Z,96427.72
2018-06-11T08:20:17.967Z,96420.58
2018-06-11T08:22:47.918Z,96417.98
2018-06-11T08:25:18.114Z,96418.56
2018-06-11T08:27:47.985Z,96414.61
2018-06-11T08:30:21.849Z,96411.13
2018-06-11T08:32:50.971Z,96410.94
2018-06-11T08:35:20.140Z,96405.03
2018-06-11T08:37:49.303Z,96412.05
2018-06-11T08:40:18.474Z,96406.44
2018-06-11T08:42:48.466Z,96404.99
2018-06-11T08:45:18.189Z,96400.95
2018-06-11T08:47:48.131Z,96403.94
2018-06-11T08:50:18.161Z,96402.84
2018-06-11T08:52:48.254Z,96398.41
2018-06-11T08:55:18.225Z,96399.37
2018-06-11T08:57:48.293Z,96397.92
2018-06-11T09:00:21.947Z,96401.15
2018-06-11T09:02:51.086Z,96401.10
2018-06-11T09:05:20.219Z,96401.88
2018-06-11T09:07:49.327Z,96393.75
2018-06-11T09:10:18.488Z,96388.81
2018-06-11T09:12:48.478Z,96394.78
2018-06-11T09:15:18.276Z,96393.03
2018-06-11T09:17:48.420Z,96392.64
2018-06-11T09:20:18.350Z,96394.69
2018-06-11T09:22:48.348Z,96386.14
2018-06-11T09:25:18.417Z,96385.23
2018-06-11T09:27:48.451Z,96388.62
2018-06-11T09:30:21.649Z,96387.13
2018-06-11T09:32:50.805Z,96392.71
2018-06-11T09:35:19.977Z,96385.81
2018-06-11T09:37:49.166Z,96387.68
2018-06-11T09:40:19.408Z,96385.61
2018-06-11T09:42:48.624Z,96381.17
2018-06-11T09:45:18.458Z,96382.66
2018-06-11T09:47:48.522Z,96373.67
2018-06-11T09:50:18.559Z,96373.86
2018-06-11T09:52:48.556Z,96373.11
2018-06-11T09:55:18.524Z,96371.23
2018-06-11T09:57:48.695Z,96365.46
2018-06-11T10:00:23.722Z,96366.73
2018-06-11T10:02:53.406Z,96360.41
2018-06-11T10:05:29.105Z,96354.95
2018-06-11T10:07:58.187Z,96362.16
2018-06-11T10:10:27.373Z,96359.00
2018-06-11T10:12:56.598Z,96350.74
2018-06-11T10:15:25.696Z,96352.84
2018-06-11T10:17:54.885Z,96340.12
2018-06-11T10:20:24.076Z,96342.00
2018-06-11T10:22:53.163Z,96336.62
2018-06-11T10:25:22.368Z,96337.52
2018-06-11T10:27:51.468Z,96326.46
2018-06-11T10:30:20.551Z,96331.45
2018-06-11T10:32:49.654Z,96332.69
2018-06-11T10:35:18.922Z,96330.58
2018-06-11T10:37:48.853Z,96317.19
2018-06-11T10:40:18.868Z,96319.48
2018-06-11T10:42:48.988Z,96315.50
2018-06-11T10:45:19.096Z,96314.97
2018-06-11T10:47:49.129Z,96312.13
2018-06-11T10:50:26.169Z,96307.78
2018-06-11T10:52:55.430Z,96313.83
2018-06-11T10:55:24.523Z,96306.98
2018-06-11T10:57:53.603Z,96304.37
2018-06-11T11:00:23.967Z,96299.61
2018-06-11T11:02:53.119Z,96304.86
2018-06-11T11:05:22.327Z,96302.69
2018-06-11T11:07:51.488Z,96296.70
2018-06-11T11:10:20.610Z,96296.02
2018-06-11T11:12:49.779Z,96296.86
2018-06-11T11:15:19.294Z,96291.25
2018-06-11T11:17:49.266Z,96277.50
2018-06-11T11:20:19.245Z,96279.79
2018-06-11T11:22:49.326Z,96271.07
2018-06-11T11:25:19.252Z,96278.80
2018-06-11T11:27:49.380Z,96276.80
2018-06-11T11:30:19.280Z,96260.06
2018-06-11T11:32:49.308Z,96258.67
2018-06-11T11:35:19.418Z,96257.86
2018-06-11T11:37:49.524Z,96252.02
2018-06-11T11:40:19.444Z,96244.36
2018-06-11T11:42:49.530Z,96248.80
2018-06-11T11:45:19.526Z,96238.02
2018-06-11T11:47:49.542Z,96230.25
2018-06-11T11:50:19.429Z,96231.07
2018-06-11T11:52:49.549Z,96225.75
2018-06-11T11:55:19.550Z,96210.17
2018-06-11T11:57:49.496Z,96209.80
2018-06-11T12:00:23.133Z,96202.64
2018-06-11T12:02:52.341Z,96197.87
2018-06-11T12:05:21.478Z,96189.55
2018-06-11T12:07:50.596Z,96189.78
2018-06-11T12:10:19.774Z,96181.61
2018-06-11T12:12:49.636Z,96173.64
2018-06-11T12:15:21.184Z,96176.38
2018-06-11T12:17:50.280Z,96169.48
2018-06-11T12:20:23.080Z,96163.41
2018-06-11T12:22:52.162Z,96151.80
2018-06-11T12:25:21.467Z,96144.55
2018-06-11T12:27:50.715Z,96140.10
2018-06-11T12:30:19.972Z,96134.45
2018-06-11T12:32:50.076Z,96134.91
2018-06-11T12:35:19.848Z,96125.94
2018-06-11T12:37:50.032Z,96124.76
2018-06-11T12:40:20.045Z,96128.80
2018-06-11T12:42:49.980Z,96132.62
2018-06-11T12:45:20.153Z,96126.31
2018-06-11T12:47:50.119Z,96124.50
2018-06-11T12:50:20.115Z,96118.30
2018-06-11T12:52:50.174Z,96114.37
2018-06-11T12:55:20.160Z,96107.72
2018-06-11T12:57:50.147Z,96105.39
2018-06-11T13:00:20.202Z,96106.06
2018-06-11T13:02:50.176Z,96104.92
2018-06-11T13:05:21.623Z,96102.61
2018-06-11T13:07:50.729Z,96106.87
2018-06-11T13:10:20.230Z,96096.86
2018-06-11T13:12:50.398Z,96105.45
2018-06-11T13:15:20.241Z,96103.73
2018-06-11T13:17:53.532Z,96094.60
2018-06-11T13:20:22.701Z,96100.05
2018-06-11T13:22:51.960Z,96090.08
2018-06-11T13:25:21.092Z,96101.09
2018-06-11T13:27:50.718Z,96106.23
2018-06-11T13:30:20.528Z,96108.59
2018-06-11T13:32:50.565Z,96100.73
2018-06-11T13:35:20.611Z,96091.48
2018-06-11T13:37:50.637Z,96092.33
2018-06-11T13:40:20.655Z,96096.45
2018-06-11T13:42:50.605Z,96105.56
2018-06-11T13:45:20.643Z,96097.47
2018-06-11T13:47:50.872Z,96090.27
2018-06-11T13:50:21.043Z,96098.07
2018-06-11T13:52:50.790Z,96089.71
2018-06-11T13:55:21.345Z,96092.70
2018-06-11T13:57:50.944Z,96081.20
2018-06-11T14:02:54.644Z,96068.17
2018-06-11T14:05:23.797Z,96064.07
2018-06-11T14:07:52.986Z,96065.98
2018-06-11T14:10:22.090Z,96056.98
2018-06-11T14:12:51.228Z,96053.10
2018-06-11T14:15:20.961Z,96050.11
2018-06-11T14:17:51.854Z,96047.78
2018-06-11T14:20:22.498Z,96037.67
2018-06-11T14:22:52.221Z,96024.56
2018-06-11T14:25:21.395Z,96013.69
2018-06-11T14:27:50.573Z,96015.42
2018-06-11T14:30:19.766Z,96003.41
2018-06-11T14:32:48.936Z,95999.98
2018-06-11T14:35:18.139Z,95990.95
2018-06-11T14:37:47.308Z,95985.07
2018-06-11T14:40:16.959Z,95977.45
2018-06-11T14:42:46.445Z,95968.71
2018-06-11T14:45:15.613Z,95971.91
2018-06-11T14:47:44.736Z,95979.02
2018-06-11T14:50:13.857Z,95981.04
2018-06-11T14:52:43.659Z,95977.00
2018-06-11T14:55:12.865Z,95977.00
2018-06-11T14:57:45.313Z,95973.89
2018-06-11T15:00:16.346Z,95968.77
2018-06-11T15:02:45.416Z,95969.02
2018-06-11T15:05:14.532Z,95971.46
2018-06-11T15:07:43.661Z,95968.37
2018-06-11T15:10:13.020Z,95966.63
2018-06-11T15:12:42.382Z,95969.09
2018-06-11T15:15:11.514Z,95973.11
2018-06-11T15:17:46.081Z,95970.17
2018-06-11T15:20:15.213Z,95956.31
2018-06-11T15:22:45.114Z,95951.39
2018-06-11T15:25:14.306Z,95948.05
2018-06-11T15:27:43.608Z,95967.45
2018-06-11T15:30:12.717Z,95969.00
2018-06-11T15:32:43.324Z,95969.77
2018-06-11T15:35:12.406Z,95964.83
2018-06-11T15:37:41.493Z,95965.58
2018-06-11T15:40:10.744Z,95968.70
2018-06-11T15:42:39.905Z,95962.59
2018-06-11T15:45:09.615Z,95971.86
2018-06-11T15:47:38.899Z,95965.41
2018-06-11T15:50:08.114Z,95957.92
2018-06-11T15:52:37.504Z,95955.03
2018-06-11T15:55:06.689Z,95947.94
2018-06-11T15:57:35.812Z,95939.65
2018-06-11T16:00:05.100Z,95931.13
2018-06-11T16:02:37.517Z,95911.34
2018-06-11T16:05:08.658Z,95892.66
2018-06-11T16:07:37.816Z,95871.33
2018-06-11T16:10:07.000Z,95861.17
2018-06-11T16:12:36.131Z,95850.48
2018-06-11T16:15:05.314Z,95854.59
2018-06-11T16:17:34.412Z,95863.49
2018-06-11T16:20:03.615Z,95883.41
2018-06-11T16:22:32.719Z,95888.48
2018-06-11T16:25:01.878Z,95899.27
2018-06-11T16:27:30.963Z,95902.23
2018-06-11T16:30:00.073Z,95907.41
2018-06-11T16:32:29.278Z,95905.91
2018-06-11T16:34:58.437Z,95905.89
2018-06-11T16:37:27.591Z,95900.64
2018-06-11T16:39:56.761Z,95900.01
2018-06-11T16:42:25.928Z,95889.67
2018-06-11T16:44:55.129Z,95881.86
2018-06-11T16:47:28.273Z,95875.33
2018-06-11T16:49:57.470Z,95865.34
2018-06-11T16:52:27.706Z,95854.52
2018-06-11T16:54:56.851Z,95856.63
2018-06-11T16:57:25.946Z,95864.88
2018-06-11T16:59:55.830Z,95849.34
2018-06-11T17:02:24.988Z,95847.97
2018-06-11T17:04:54.147Z,95836.99
2018-06-11T17:07:23.356Z,95827.62
2018-06-11T17:09:52.981Z,95826.94
2018-06-11T17:12:22.923Z,95820.50
2018-06-11T17:14:53.008Z,95814.99
2018-06-11T17:17:24.898Z,95811.89
2018-06-11T17:19:54.090Z,95816.59
2018-06-11T17:22:24.143Z,95828.02
2018-06-11T17:24:53.294Z,95843.23
2018-06-11T17:27:26.391Z,95859.98
2018-06-11T17:29:55.521Z,95869.64
2018-06-11T17:32:24.669Z,95873.20
2018-06-11T17:34:53.826Z,95860.77
2018-06-11T17:37:23.425Z,95853.48
2018-06-11T17:39:53.388Z,95859.47
2018-06-11T17:42:23.428Z,95867.48
2018-06-11T17:44:54.296Z,95865.86
2018-06-11T17:47:24.409Z,95875.55
2018-06-11T17:49:53.610Z,95888.98
2018-06-11T17:52:23.448Z,95928.05
2018-06-11T17:54:53.519Z,95949.53
2018-06-11T17:57:23.471Z,95949.61
2018-06-11T17:59:53.527Z,95953.00
2018-06-11T18:02:23.668Z,95960.41
2018-06-11T18:04:54.601Z,95949.92
2018-06-11T18:07:23.816Z,95939.10
2018-06-11T18:09:53.730Z,95941.87
2018-06-11T18:12:23.805Z,95923.76
2018-06-11T18:14:53.752Z,95931.20
2018-06-11T18:17:25.602Z,95951.72
2018-06-11T18:19:54.921Z,95957.28
2018-06-11T18:22:27.546Z,95957.11
2018-06-11T18:24:56.752Z,95955.32
2018-06-11T18:27:26.197Z,95952.20
2018-06-11T18:29:57.012Z,95951.55
2018-06-11T18:32:26.224Z,95953.06
2018-06-11T18:34:58.251Z,95953.42
2018-06-11T18:37:27.429Z,95961.73
2018-06-11T18:39:56.719Z,95973.91
2018-06-11T18:42:26.078Z,95970.25
2018-06-11T18:44:55.527Z,95987.79
2018-06-11T18:47:24.929Z,95996.45
2018-06-11T18:49:54.177Z,95994.92
2018-06-11T18:52:24.170Z,95998.11
2018-06-11T18:54:57.646Z,96021.78
2018-06-11T18:57:26.999Z,96022.38
2018-06-11T18:59:56.390Z,96021.86
2018-06-11T19:02:25.619Z,96022.13
2018-06-11T19:04:54.762Z,96025.48
2018-06-11T19:07:24.478Z,96029.83
2018-06-11T19:09:54.722Z,96040.59
2018-06-11T19:12:24.561Z,96047.92
2018-06-11T19:14:54.717Z,96050.14
2018-06-11T19:17:24.376Z,96071.98
2018-06-11T19:19:58.348Z,96073.88
2018-06-11T19:22:27.577Z,96074.91
2018-06-11T19:24:56.815Z,96079.33
2018-06-11T19:27:25.989Z,96080.21
2018-06-11T19:29:55.165Z,96089.23
2018-06-11T19:32:25.077Z,96094.14
2018-06-11T19:34:55.117Z,96104.34
2018-06-11T19:37:25.684Z,96092.34
2018-06-11T19:39:55.412Z,96104.09
2018-06-11T19:42:24.755Z,96117.50
2018-06-11T19:44:53.903Z,96118.42
2018-06-11T19:47:27.816Z,96118.42
2018-06-11T19:49:57.308Z,96121.87
2018-06-11T19:52:26.593Z,96123.28
2018-06-11T19:55:03.311Z,96127.41
2018-06-11T19:57:37.968Z,96148.17
2018-06-11T20:00:07.202Z,96143.02
2018-06-11T20:02:36.452Z,96163.78
2018-06-11T20:05:05.668Z,96175.13
2018-06-11T20:07:34.793Z,96177.70
2018-06-11T20:10:04.038Z,96182.72
2018-06-11T20:12:33.816Z,96183.50
2018-06-11T20:15:02.997Z,96197.30
2018-06-11T20:17:32.147Z,96184.73
2018-06-11T20:20:01.267Z,96182.33
2018-06-11T20:22:30.537Z,96178.35
2018-06-11T20:24:59.757Z,96185.68
2018-06-11T20:27:29.099Z,96184.66
2018-06-11T20:29:58.854Z,96185.28
2018-06-11T20:32:28.479Z,96196.71
2018-06-11T20:34:57.543Z,96197.53
2018-06-11T20:37:26.734Z,96195.22
2018-06-11T20:39:55.982Z,96195.97
2018-06-11T20:42:25.226Z,96203.59
2018-06-11T20:44:55.424Z,96207.97
2018-06-11T20:47:25.337Z,96214.78
2018-06-11T20:49:55.405Z,96214.07
2018-06-11T20:52:25.403Z,96206.81
2018-06-11T20:54:55.553Z,96211.56
2018-06-11T20:57:25.440Z,96218.41
2018-06-11T20:59:55.536Z,96208.11
2018-06-11T21:02:27.347Z,96197.66
2018-06-11T21:04:56.507Z,96192.78
2018-06-11T21:07:25.618Z,96181.96
2018-06-11T21:09:55.508Z,96178.60
2018-06-11T21:12:25.529Z,96165.95
2018-06-11T21:14:55.565Z,96164.77
2018-06-11T21:17:25.715Z,96159.11
2018-06-11T21:19:55.642Z,96158.98
2018-06-11T21:22:25.804Z,96158.20
2018-06-11T21:24:55.695Z,96161.92
2018-06-11T21:27:25.883Z,96160.36
2018-06-11T21:29:55.935Z,96153.69
2018-06-11T21:32:25.893Z,96154.47
2018-06-11T21:34:55.814Z,96156.26
2018-06-11T21:37:26.026Z,96155.04
2018-06-11T21:39:55.945Z,96155.67
2018-06-11T21:42:25.859Z,96157.81
2018-06-11T21:44:55.887Z,96157.47
2018-06-11T21:47:25.909Z,96163.53
2018-06-11T21:49:55.999Z,96184.13
2018-06-11T21:52:26.049Z,96182.77
2018-06-11T21:54:56.036Z,96192.84
2018-06-11T21:57:26.058Z,96196.43
2018-06-11T21:59:56.181Z,96202.71
2018-06-11T22:02:26.056Z,96207.83
2018-06-11T22:04:56.098Z,96223.27
2018-06-11T22:07:25.192Z,96222.07
2018-06-11T22:09:54.445Z,96223.86
2018-06-11T22:12:23.602Z,96231.58
2018-06-11T22:14:54.710Z,96227.72
2018-06-11T22:17:23.873Z,96230.30
2018-06-11T22:19:53.076Z,96224.39
2018-06-11T22:22:22.220Z,96229.63
2018-06-11T22:24:51.461Z,96234.89
2018-06-11T22:27:20.600Z,96232.33
2018-06-11T22:29:49.689Z,96233.11
2018-06-11T22:32:18.810Z,96236.13
2018-06-11T22:34:47.963Z,96235.27
2018-06-11T22:37:17.004Z,96242.62
2018-06-11T22:39:46.074Z,96244.47
2018-06-11T22:42:15.192Z,96241.66
2018-06-11T22:44:44.306Z,96241.38
2018-06-11T22:47:16.305Z,96243.94
2018-06-11T22:49:45.450Z,96231.58
2018-06-11T22:52:15.342Z,96235.44
2018-06-11T22:54:48.356Z,96242.37
2018-06-11T22:57:17.486Z,96238.51
2018-06-11T22:59:46.594Z,96240.58
2018-06-11T23:02:16.974Z,96243.06
2018-06-11T23:04:46.078Z,96240.00
2018-06-11T23:07:15.250Z,96242.04
2018-06-11T23:09:44.566Z,96239.88
2018-06-11T23:12:14.942Z,96239.44
2018-06-11T23:14:44.276Z,96238.71
2018-06-11T23:17:13.500Z,96239.03
2018-06-11T23:19:42.672Z,96237.75
2018-06-11T23:24:49.504Z,96236.47
2018-06-11T23:27:18.697Z,96236.67
2018-06-11T23:29:47.868Z,96237.58
2018-06-11T23:32:17.050Z,96228.17
2018-06-11T23:34:46.214Z,96235.03
2018-06-11T23:37:18.978Z,96234.22
2018-06-11T23:39:48.241Z,96237.75
2018-06-11T23:42:17.366Z,96228.95
2018-06-11T23:44:59.083Z,96226.88
2018-06-11T23:47:28.438Z,96225.89
2018-06-11T23:49:58.570Z,96228.45
2018-06-11T23:52:28.588Z,96218.78
2018-06-11T23:54:58.492Z,96220.33
2018-06-11T23:57:28.620Z,96224.54
2018-06-11T23:59:58.584Z,96221.78
